Time;durP1;ratioP1;P1;durP2;ratioP2;P2;SDS_P1;SDS_P2;PMS_P1;PMS_P2;Temp;Humidity;BMP_temperature;BMP_pressure;BME280_temperature;BME280_humidity;BME280_pressure;Samples;Min_cycle;Max_cycle;Signal;HPM_P1;HPM_P2
2021/03/27 00:01:22;;;;;;;3.22;1.73;;;;;;;6.17;76.30;99373.03;4992164;28;20026;-75
2021/03/27 00:04:00;;;;;;;5.22;3.67;;;;;;;6.16;75.42;99392.28;4992673;28;20046;-75
2021/03/27 00:07:07;;;;;;;2.60;2.08;;;;;;;6.11;75.48;99393.38;4995127;28;20049;-75
2021/03/27 00:09:44;;;;;;;5.22;1.92;;;;;;;6.11;76.11;99382.91;4893761;29;20152;-75
2021/03/27 00:13:01;;;;;;;2.88;1.98;;;;;;;5.97;75.09;99391.25;4983674;28;20038;-74
2021/03/27 00:15:32;;;;;;;2.63;1.98;;;;;;;5.97;75.30;99413.03;4965635;28;20034;-74
2021/03/27 00:18:05;;;;;;;3.22;2.38;;;;;;;5.99;76.05;99423.44;4992509;28;20502;-76
2021/03/27 00:20:35;;;;;;;1.60;1.50;;;;;;;5.97;74.59;99436.56;4992968;28;20435;-75
2021/03/27 00:23:07;;;;;;;2.42;1.63;;;;;;;6.00;74.84;99438.22;4992720;28;20044;-76
2021/03/27 00:25:40;;;;;;;2.63;1.92;;;;;;;5.92;75.15;99435.00;4994947;28;20031;-75
2021/03/27 00:28:17;;;;;;;3.47;2.35;;;;;;;5.86;74.80;99432.59;4994619;28;20045;-76
2021/03/27 00:30:48;;;;;;;2.95;2.40;;;;;;;5.77;74.60;99437.25;4993131;28;20038;-76
2021/03/27 00:33:15;;;;;;;4.07;2.10;;;;;;;5.65;73.91;99448.16;4996428;28;20030;-75
2021/03/27 00:35:44;;;;;;;3.70;2.17;;;;;;;5.60;74.05;99437.00;5011264;28;20041;-78
2021/03/27 00:38:14;;;;;;;5.10;2.20;;;;;;;5.59;75.11;99433.53;4992833;28;20065;-75
2021/03/27 00:40:45;;;;;;;4.03;2.10;;;;;;;5.57;74.34;99442.34;5006626;28;20031;-76
2021/03/27 00:43:17;;;;;;;3.90;2.15;;;;;;;5.54;74.40;99435.44;4990649;28;20031;-76
2021/03/27 00:45:46;;;;;;;5.10;2.30;;;;;;;5.52;74.68;99439.03;4990638;28;20518;-75
2021/03/27 00:48:17;;;;;;;3.67;2.30;;;;;;;5.53;74.64;99461.63;4990011;28;20046;-76
2021/03/27 00:50:49;;;;;;;8.00;1.90;;;;;;;5.48;74.34;99446.09;4992170;28;20097;-76
2021/03/27 00:53:45;;;;;;;10.05;2.22;;;;;;;5.47;74.43;99440.94;4992269;28;20030;-76
2021/03/27 00:56:24;;;;;;;4.78;2.22;;;;;;;5.43;74.60;99442.78;4991883;28;20118;-76
2021/03/27 00:58:58;;;;;;;1.85;1.63;;;;;;;5.42;74.39;99438.47;4991991;28;20486;-76
2021/03/27 01:01:26;;;;;;;3.88;2.40;;;;;;;5.41;74.78;99444.59;5007144;28;20030;-75
2021/03/27 01:03:59;;;;;;;6.03;2.38;;;;;;;5.42;74.44;99446.31;4991431;28;20445;-76
2021/03/27 01:06:47;;;;;;;5.50;2.00;;;;;;;5.35;73.98;99445.66;4991271;28;20035;-76
2021/03/27 01:09:15;;;;;;;3.72;2.08;;;;;;;5.32;75.34;99453.63;4990777;28;20038;-75
2021/03/27 01:11:49;;;;;;;4.15;2.00;;;;;;;5.27;74.70;99447.69;4991879;28;20065;-75
2021/03/27 01:14:18;;;;;;;3.53;2.22;;;;;;;5.25;74.58;99448.66;4991481;28;20426;-76
2021/03/27 01:16:54;;;;;;;5.55;2.72;;;;;;;5.24;74.58;99458.25;4991214;28;20030;-76
2021/03/27 01:19:38;;;;;;;4.75;2.75;;;;;;;5.24;75.73;99449.53;4989357;28;20081;-76
2021/03/27 01:22:08;;;;;;;6.13;3.20;;;;;;;5.20;74.75;99453.19;4989870;28;20504;-76
2021/03/27 01:24:34;;;;;;;6.07;2.83;;;;;;;5.19;75.18;99451.44;4991218;28;20402;-76
2021/03/27 01:27:18;;;;;;;5.32;2.78;;;;;;;5.19;75.47;99449.69;4990430;28;20118;-76
2021/03/27 01:29:55;;;;;;;3.42;2.50;;;;;;;5.19;74.97;99438.38;4987954;28;20105;-75
2021/03/27 01:32:36;;;;;;;5.70;2.75;;;;;;;5.18;75.32;99447.13;4991293;28;20027;-75
2021/03/27 01:35:07;;;;;;;4.25;2.70;;;;;;;5.12;75.77;99461.25;4991232;28;20061;-76
2021/03/27 01:37:41;;;;;;;6.00;3.03;;;;;;;5.09;76.01;99456.13;5005872;28;20038;-76
2021/03/27 01:40:21;;;;;;;5.55;2.85;;;;;;;5.09;76.27;99471.78;4990635;28;20038;-75
2021/03/27 01:43:14;;;;;;;6.10;3.50;;;;;;;5.03;75.75;99470.22;4954753;28;20038;-75
2021/03/27 01:46:08;;;;;;;5.43;3.58;;;;;;;5.05;76.66;99464.97;4971198;28;20121;-76
2021/03/27 01:49:01;;;;;;;5.05;3.08;;;;;;;5.02;76.46;99470.28;4970948;28;20039;-76
2021/03/27 01:51:47;;;;;;;6.50;3.47;;;;;;;4.95;76.37;99467.88;4985985;28;20034;-75
2021/03/27 01:54:19;;;;;;;5.20;3.70;;;;;;;4.87;76.91;99458.53;4971151;28;20134;-75
2021/03/27 01:57:17;;;;;;;6.80;3.80;;;;;;;4.89;77.46;99465.44;4971233;28;20039;-76
2021/03/27 01:59:51;;;;;;;6.00;3.58;;;;;;;4.86;77.30;99468.16;4967377;28;20371;-76
2021/03/27 02:02:20;;;;;;;5.18;3.63;;;;;;;4.88;77.47;99475.94;4957166;28;20486;-76
2021/03/27 02:04:59;;;;;;;6.32;3.35;;;;;;;4.87;76.90;99469.88;4971123;28;20111;-75
2021/03/27 02:07:32;;;;;;;4.65;2.80;;;;;;;4.88;76.95;99484.63;4970347;28;20098;-76
2021/03/27 02:10:26;;;;;;;5.45;2.65;;;;;;;4.91;76.94;99488.91;4970435;28;20033;-76
2021/03/27 02:13:11;;;;;;;4.30;3.28;;;;;;;4.90;76.44;99485.44;4985438;28;20042;-75
2021/03/27 02:15:51;;;;;;;7.68;3.10;;;;;;;4.94;77.31;99489.66;4970982;28;20103;-76
2021/03/27 02:18:24;;;;;;;9.82;3.05;;;;;;;4.98;75.91;99487.81;4985092;28;20038;-76
2021/03/27 02:21:11;;;;;;;7.20;2.63;;;;;;;5.02;76.27;99480.72;5004710;28;20084;-76
2021/03/27 02:23:51;;;;;;;11.15;4.35;;;;;;;5.02;74.71;99492.06;4990628;28;20046;-76
2021/03/27 02:26:35;;;;;;;7.50;2.53;;;;;;;5.00;75.38;99496.47;4990083;28;20129;-76
2021/03/27 02:29:27;;;;;;;5.47;2.22;;;;;;;4.98;75.18;99495.66;4988276;28;20046;-76
2021/03/27 02:32:05;;;;;;;7.22;2.78;;;;;;;4.96;75.03;99497.44;4989686;28;20441;-76
2021/03/27 02:34:34;;;;;;;6.70;2.45;;;;;;;4.99;75.64;99496.50;4988284;28;20054;-75
2021/03/27 02:37:06;;;;;;;10.63;3.28;;;;;;;5.02;75.39;99502.50;4988724;28;20034;-74
2021/03/27 02:39:49;;;;;;;3.75;2.30;;;;;;;5.04;75.49;99505.91;4993766;28;20625;-74
2021/03/27 02:42:28;;;;;;;7.15;2.92;;;;;;;5.03;75.43;99505.97;4994113;28;20129;-74
2021/03/27 02:45:13;;;;;;;6.45;2.67;;;;;;;5.01;75.28;99513.00;4992017;28;20038;-74
2021/03/27 02:47:53;;;;;;;9.52;2.70;;;;;;;5.07;75.04;99523.22;4994168;28;20045;-74
2021/03/27 02:50:43;;;;;;;8.02;2.53;;;;;;;5.12;74.98;99522.22;4993869;28;20397;-75
2021/03/27 02:53:47;;;;;;;3.67;2.13;;;;;;;5.14;75.02;99530.88;4993668;28;20034;-75
2021/03/27 02:56:18;;;;;;;6.45;2.25;;;;;;;5.12;74.56;99521.38;4970362;28;20530;-75
2021/03/27 02:59:09;;;;;;;9.52;2.47;;;;;;;5.12;74.35;99542.25;4993576;28;20533;-75
2021/03/27 03:01:52;;;;;;;6.55;2.90;;;;;;;5.17;74.62;99542.97;4991873;28;20042;-74
2021/03/27 03:04:23;;;;;;;6.05;2.60;;;;;;;5.16;73.67;99552.53;4994089;28;20034;-75
2021/03/27 03:06:55;;;;;;;8.23;2.92;;;;;;;5.19;74.00;99551.59;4994957;28;20042;-75
2021/03/27 03:09:32;;;;;;;6.28;2.50;;;;;;;5.20;74.30;99550.72;4994258;28;20506;-74
2021/03/27 03:12:10;;;;;;;5.57;2.60;;;;;;;5.16;73.65;99562.16;4992480;28;20039;-74
2021/03/27 03:14:46;;;;;;;6.60;2.90;;;;;;;5.13;73.32;99557.88;4993225;28;20034;-74
2021/03/27 03:17:23;;;;;;;5.15;2.70;;;;;;;5.12;73.70;99550.94;4993583;28;20050;-75
2021/03/27 03:20:07;;;;;;;9.68;3.63;;;;;;;5.14;72.58;99556.13;4994206;28;20033;-75
2021/03/27 03:22:51;;;;;;;10.68;2.85;;;;;;;5.15;72.33;99560.44;4994704;28;20436;-75
2021/03/27 03:25:21;;;;;;;5.70;2.42;;;;;;;5.16;71.19;99570.00;4994630;28;20034;-74
2021/03/27 03:28:22;;;;;;;6.25;2.95;;;;;;;5.12;71.62;99566.63;4995678;28;20042;-75
2021/03/27 03:30:55;;;;;;;8.00;2.28;;;;;;;5.05;72.17;99579.94;4990185;28;20062;-74
2021/03/27 03:33:49;;;;;;;8.27;2.42;;;;;;;5.04;73.07;99586.03;4994667;28;20038;-74
2021/03/27 03:36:29;;;;;;;9.68;2.20;;;;;;;5.01;72.03;99589.59;4993172;28;20152;-75
2021/03/27 03:39:06;;;;;;;9.15;2.25;;;;;;;4.95;72.20;99588.03;5007708;28;20033;-74
2021/03/27 03:41:40;;;;;;;4.93;2.35;;;;;;;4.94;72.03;99594.13;4992837;28;20034;-74
2021/03/27 03:44:12;;;;;;;10.30;2.97;;;;;;;4.89;72.08;99600.41;4993072;28;20038;-75
2021/03/27 03:47:03;;;;;;;7.25;2.25;;;;;;;4.89;72.67;99595.19;4993156;28;20042;-75
2021/03/27 03:49:40;;;;;;;3.88;1.77;;;;;;;4.84;72.87;99587.47;4992750;28;20406;-75
2021/03/27 03:52:23;;;;;;;5.97;2.42;;;;;;;4.79;72.55;99594.59;4993497;28;20035;-75
2021/03/27 03:54:56;;;;;;;5.93;2.03;;;;;;;4.72;72.78;99599.13;4993867;28;20105;-75
2021/03/27 03:57:31;;;;;;;11.18;3.55;;;;;;;4.62;72.93;99599.44;4994228;28;20097;-75
2021/03/27 04:00:10;;;;;;;8.40;2.17;;;;;;;4.55;73.35;99601.34;4994472;28;20041;-75
2021/03/27 04:02:47;;;;;;;4.30;2.08;;;;;;;4.57;73.28;99603.94;4996732;28;20061;-75
2021/03/27 04:05:21;;;;;;;6.32;2.05;;;;;;;4.55;73.33;99603.13;4994194;28;20046;-75
2021/03/27 04:08:02;;;;;;;11.90;4.63;;;;;;;4.52;73.39;99599.69;4994453;28;20046;-74
2021/03/27 04:10:31;;;;;;;7.47;2.97;;;;;;;4.49;73.27;99605.00;4994859;28;20038;-74
2021/03/27 04:13:06;;;;;;;9.48;3.67;;;;;;;4.46;73.61;99601.63;5002818;28;20054;-72
2021/03/27 04:15:44;;;;;;;11.55;3.50;;;;;;;4.42;73.54;99600.84;5012351;28;20113;-74
2021/03/27 04:18:28;;;;;;;6.13;3.13;;;;;;;4.43;74.41;99604.28;5013737;28;20030;-74
2021/03/27 04:21:21;;;;;;;10.00;3.92;;;;;;;4.40;74.08;99601.78;4999529;28;20054;-73
2021/03/27 04:23:55;;;;;;;5.95;2.33;;;;;;;4.38;73.93;99599.22;4997952;28;20080;-75
2021/03/27 04:26:30;;;;;;;7.25;2.42;;;;;;;4.43;74.01;99601.69;4993193;28;20038;-74
2021/03/27 04:29:29;;;;;;;8.93;3.00;;;;;;;4.44;74.06;99609.50;4992017;28;20398;-75
2021/03/27 04:32:30;;;;;;;9.88;2.97;;;;;;;4.48;74.42;99621.56;4992435;28;20385;-74
2021/03/27 04:35:21;;;;;;;6.25;2.47;;;;;;;4.56;73.98;99623.13;4991769;28;20035;-74
2021/03/27 04:38:03;;;;;;;12.82;4.57;;;;;;;4.61;73.34;99621.22;4992174;28;20057;-76
2021/03/27 04:40:34;;;;;;;12.32;3.28;;;;;;;4.61;74.09;99634.28;4990385;28;20053;-74
2021/03/27 04:43:20;;;;;;;8.65;2.83;;;;;;;4.64;73.33;99631.59;4992053;28;20527;-74
2021/03/27 04:45:51;;;;;;;10.02;3.38;;;;;;;4.71;73.84;99627.91;4991166;28;20046;-75
2021/03/27 04:48:28;;;;;;;9.05;3.15;;;;;;;4.72;72.63;99635.69;4991199;28;20034;-74
2021/03/27 04:51:31;;;;;;;7.47;2.78;;;;;;;4.75;72.74;99647.81;4991955;28;20030;-73
2021/03/27 04:54:03;;;;;;;14.57;3.63;;;;;;;4.78;72.98;99639.06;4991201;28;20046;-74
2021/03/27 04:56:41;;;;;;;8.32;4.13;;;;;;;4.83;72.61;99653.69;4991873;28;20038;-74
2021/03/27 04:59:25;;;;;;;10.80;3.40;;;;;;;4.82;72.91;99658.94;4991000;28;20524;-75
2021/03/27 05:02:00;;;;;;;14.15;3.25;;;;;;;4.81;73.83;99652.88;4991387;28;20045;-76
2021/03/27 05:04:35;;;;;;;9.25;3.28;;;;;;;4.72;74.52;99660.94;4991612;28;20041;-75
2021/03/27 05:07:10;;;;;;;16.60;3.53;;;;;;;4.70;75.02;99658.41;4990184;28;20045;-74
2021/03/27 05:09:54;;;;;;;9.82;3.05;;;;;;;4.71;74.25;99664.47;4989802;28;20414;-75
2021/03/27 05:12:31;;;;;;;10.98;4.30;;;;;;;4.74;74.57;99667.84;4991671;28;20039;-74
2021/03/27 05:15:08;;;;;;;11.00;3.40;;;;;;;4.76;73.69;99675.66;4990698;28;20039;-74
2021/03/27 05:17:42;;;;;;;15.25;3.45;;;;;;;4.80;74.03;99674.66;4989057;28;20046;-74
2021/03/27 05:20:16;;;;;;;8.52;3.08;;;;;;;4.86;73.84;99664.03;4989311;28;20034;-74
2021/03/27 05:22:51;;;;;;;9.00;3.72;;;;;;;4.91;73.35;99664.75;5005895;28;20113;-75
2021/03/27 05:25:31;;;;;;;10.60;3.58;;;;;;;4.96;72.85;99672.47;4990874;28;20039;-74
2021/03/27 05:28:07;;;;;;;16.23;4.53;;;;;;;4.99;73.10;99681.97;4989118;28;20453;-75
2021/03/27 05:31:10;;;;;;;9.60;3.45;;;;;;;5.05;73.16;99685.28;4990184;28;20038;-75
2021/03/27 05:33:45;;;;;;;17.05;3.92;;;;;;;5.11;72.55;99679.03;4990879;28;20064;-74
2021/03/27 05:36:28;;;;;;;9.02;3.60;;;;;;;5.14;72.22;99684.16;4989388;28;20111;-74
2021/03/27 05:39:27;;;;;;;9.23;3.72;;;;;;;5.18;71.84;99680.56;4990039;28;20375;-74
2021/03/27 05:42:07;;;;;;;16.25;4.90;;;;;;;5.19;72.38;99687.47;4986766;28;20034;-74
2021/03/27 05:44:45;;;;;;;15.85;6.60;;;;;;;5.15;72.05;99686.72;4990203;28;20049;-75
2021/03/27 05:47:23;;;;;;;14.40;5.00;;;;;;;5.15;72.58;99697.19;4990540;28;20042;-74
2021/03/27 05:50:07;;;;;;;14.05;4.20;;;;;;;5.18;72.85;99701.47;4989735;28;20129;-75
2021/03/27 05:52:45;;;;;;;14.07;4.07;;;;;;;5.14;72.83;99702.44;4990422;28;20088;-75
2021/03/27 05:55:53;;;;;;;16.52;5.57;;;;;;;5.08;72.98;99715.69;4990666;28;20046;-75
2021/03/27 05:58:29;;;;;;;10.52;3.35;;;;;;;5.04;73.74;99724.50;4988977;28;20031;-75
2021/03/27 06:01:14;;;;;;;11.27;3.47;;;;;;;5.00;74.05;99749.03;4990365;28;20115;-74
2021/03/27 06:04:01;;;;;;;6.70;2.95;;;;;;;4.91;74.42;99760.56;5005443;28;20439;-74
2021/03/27 06:06:42;;;;;;;10.70;4.82;;;;;;;4.72;73.77;99786.28;4986507;28;20046;-75
2021/03/27 06:09:35;;;;;;;6.22;2.30;;;;;;;4.36;74.21;99799.38;4989636;28;20030;-75
2021/03/27 06:12:19;;;;;;;10.32;3.03;;;;;;;4.02;76.38;99815.78;5003828;28;20030;-75
2021/03/27 06:15:07;;;;;;;5.63;1.75;;;;;;;3.76;76.08;99845.00;4988599;28;20520;-74
2021/03/27 06:17:47;;;;;;;3.55;1.55;;;;;;;3.33;75.31;99830.22;4989867;28;20433;-75
2021/03/27 06:20:37;;;;;;;1.50;1.08;;;;;;;3.09;76.73;99831.53;4990003;28;20092;-75
2021/03/27 06:23:12;;;;;;;3.55;1.48;;;;;;;2.99;77.70;99835.19;4988695;28;20156;-75
2021/03/27 06:25:40;;;;;;;2.72;2.13;;;;;;;2.92;77.14;99839.66;4992263;28;20040;-75
2021/03/27 06:28:33;;;;;;;1.83;1.30;;;;;;;2.82;77.33;99832.03;4992098;28;20445;-75
2021/03/27 06:31:23;;;;;;;2.53;1.27;;;;;;;2.70;77.57;99822.66;4991586;28;20049;-75
2021/03/27 06:33:55;;;;;;;2.15;1.30;;;;;;;2.73;78.66;99839.13;4992059;28;20054;-75
2021/03/27 06:36:20;;;;;;;1.52;1.23;;;;;;;2.70;77.85;99818.31;4992880;28;20088;-75
2021/03/27 06:39:25;;;;;;;2.70;1.38;;;;;;;2.66;77.45;99834.88;4992268;28;20038;-75
2021/03/27 06:42:19;;;;;;;1.83;1.35;;;;;;;2.62;76.67;99835.81;5005694;28;20508;-75
2021/03/27 06:45:05;;;;;;;1.42;1.30;;;;;;;2.59;77.56;99838.47;4991515;28;20050;-76
2021/03/27 06:47:46;;;;;;;2.88;1.10;;;;;;;2.55;77.87;99836.78;4990628;28;20530;-76
2021/03/27 06:50:36;;;;;;;1.98;1.50;;;;;;;2.63;77.56;99839.28;4990248;28;20101;-75
2021/03/27 06:53:14;;;;;;;3.25;0.90;;;;;;;2.67;77.56;99851.38;4986637;28;20064;-75
2021/03/27 06:56:24;;;;;;;3.25;1.25;;;;;;;2.73;77.66;99848.66;4990375;28;20494;-75
2021/03/27 06:58:56;;;;;;;2.78;1.20;;;;;;;2.86;77.01;99857.13;4990017;28;20034;-75
2021/03/27 07:01:36;;;;;;;3.47;1.40;;;;;;;3.12;77.04;99854.06;4991094;28;20130;-76
2021/03/27 07:04:07;;;;;;;6.47;1.70;;;;;;;3.69;75.10;99859.06;4987439;28;20100;-75
2021/03/27 07:07:03;;;;;;;2.45;1.30;;;;;;;3.78;75.11;99861.50;4989590;28;20465;-77
2021/03/27 07:09:53;;;;;;;5.10;2.50;;;;;;;3.79;74.36;99862.34;4988102;28;20145;-75
2021/03/27 07:12:54;;;;;;;5.05;2.25;;;;;;;3.82;74.49;99862.31;4983194;28;20389;-75
2021/03/27 07:15:50;;;;;;;3.05;1.80;;;;;;;3.84;74.03;99865.75;5005566;28;20030;-75
2021/03/27 07:18:39;;;;;;;4.53;2.05;;;;;;;3.93;74.02;99875.09;4989505;28;20038;-76
2021/03/27 07:21:31;;;;;;;7.60;2.05;;;;;;;4.02;73.46;99874.94;4989852;28;20038;-75
2021/03/27 07:24:34;;;;;;;4.47;2.00;;;;;;;4.19;73.47;99885.00;4988520;28;20552;-76
2021/03/27 07:27:25;;;;;;;15.90;3.28;;;;;;;4.50;72.89;99886.03;4991296;28;20117;-77
2021/03/27 07:30:20;;;;;;;6.18;1.88;;;;;;;4.80;70.95;99898.41;4993807;28;20042;-75
2021/03/27 07:33:11;;;;;;;4.63;1.80;;;;;;;4.99;70.25;99898.81;4993897;28;20064;-76
2021/03/27 07:35:50;;;;;;;11.55;4.05;;;;;;;5.36;69.08;99910.06;5002045;28;20155;-76
2021/03/27 07:38:48;;;;;;;7.47;3.67;;;;;;;6.27;66.85;99914.56;4993228;28;20031;-76
2021/03/27 07:41:32;;;;;;;8.43;2.42;;;;;;;7.04;63.42;99902.59;4977018;28;20058;-77
2021/03/27 07:44:19;;;;;;;5.03;2.42;;;;;;;7.85;61.14;99912.91;4992739;28;20142;-75
2021/03/27 07:47:12;;;;;;;7.93;2.97;;;;;;;8.31;59.56;99915.59;4994837;28;20046;-76
2021/03/27 07:50:20;;;;;;;8.07;2.47;;;;;;;8.78;57.92;99924.28;4994402;28;20122;-77
2021/03/27 07:53:23;;;;;;;12.45;3.65;;;;;;;9.17;58.45;99923.59;4953375;28;20053;-76
2021/03/27 07:56:19;;;;;;;5.18;2.35;;;;;;;9.16;56.95;99915.78;4997076;28;20031;-77
2021/03/27 07:59:20;;;;;;;10.20;2.80;;;;;;;8.87;57.72;99930.09;4995579;28;20145;-76
2021/03/27 08:02:03;;;;;;;11.30;3.38;;;;;;;8.52;57.95;99932.34;4986049;28;20555;-76
2021/03/27 08:05:07;;;;;;;10.35;3.45;;;;;;;8.79;58.13;99938.31;4997327;28;20045;-76
2021/03/27 08:07:51;;;;;;;6.68;4.10;;;;;;;8.67;57.40;99939.63;4901481;29;20044;-76
2021/03/27 08:10:43;;;;;;;9.73;3.75;;;;;;;8.76;58.50;99941.03;4991355;28;20034;-75
2021/03/27 08:13:08;;;;;;;13.30;3.67;;;;;;;9.23;57.25;99940.91;4999734;28;20514;-75
2021/03/27 08:16:11;;;;;;;8.50;4.28;;;;;;;9.05;56.96;99939.88;4996982;28;20119;-76
2021/03/27 08:18:58;;;;;;;9.50;3.40;;;;;;;8.73;57.07;99944.63;5000982;28;20035;-74
2021/03/27 08:21:34;;;;;;;13.25;4.10;;;;;;;8.64;59.30;99952.00;4996112;28;20039;-75
2021/03/27 08:24:15;;;;;;;10.43;2.92;;;;;;;8.41;58.88;99955.53;4994213;28;20494;-74
2021/03/27 08:27:03;;;;;;;12.68;4.18;;;;;;;8.88;57.14;99969.47;4993502;28;20042;-76
2021/03/27 08:30:06;;;;;;;9.93;4.35;;;;;;;10.09;55.26;99960.91;4993909;28;20066;-75
2021/03/27 08:32:50;;;;;;;17.88;4.22;;;;;;;10.69;53.19;99960.88;4995325;28;20113;-76
2021/03/27 08:35:48;;;;;;;14.32;3.88;;;;;;;9.60;55.38;99971.81;4996046;28;20042;-76
2021/03/27 08:38:16;;;;;;;15.77;3.70;;;;;;;9.07;56.62;99971.38;4993846;28;20030;-76
2021/03/27 08:41:06;;;;;;;12.55;4.45;;;;;;;8.69;57.72;99978.97;4993708;28;20062;-76
2021/03/27 08:43:59;;;;;;;12.10;4.63;;;;;;;8.63;57.21;99981.84;5006295;28;20035;-74
2021/03/27 08:46:43;;;;;;;11.18;3.95;;;;;;;8.54;57.21;99980.41;4994039;28;20053;-74
2021/03/27 08:49:46;;;;;;;11.68;4.70;;;;;;;8.94;54.97;99981.53;4992110;28;20042;-75
2021/03/27 08:52:52;;;;;;;14.07;4.18;;;;;;;8.75;55.28;99984.88;4990945;28;20113;-75
2021/03/27 08:55:23;;;;;;;11.43;3.70;;;;;;;8.72;55.70;99990.25;4948750;28;20469;-76
2021/03/27 08:58:11;;;;;;;13.35;4.45;;;;;;;8.46;56.31;99988.59;4992674;28;20042;-75
2021/03/27 09:01:02;;;;;;;12.18;3.30;;;;;;;9.34;54.64;99987.81;4983159;28;20043;-76
2021/03/27 09:04:09;;;;;;;9.55;4.03;;;;;;;9.45;54.20;100001.38;4994308;28;20100;-76
2021/03/27 09:06:34;;;;;;;15.75;4.45;;;;;;;9.59;53.85;100006.06;4992272;28;20042;-75
2021/03/27 09:09:38;;;;;;;18.05;5.03;;;;;;;10.53;51.48;99993.22;4994011;28;20622;-75
2021/03/27 09:12:20;;;;;;;21.00;4.78;;;;;;;9.82;51.13;100003.34;4992106;28;20390;-75
2021/03/27 09:15:16;;;;;;;12.88;3.55;;;;;;;9.58;53.70;100005.22;4993981;28;20045;-75
2021/03/27 09:18:00;;;;;;;15.55;4.05;;;;;;;9.08;53.96;100002.88;4993651;28;20046;-74
2021/03/27 09:20:40;;;;;;;19.42;4.60;;;;;;;8.74;53.58;100008.59;4990332;28;20258;-75
2021/03/27 09:23:34;;;;;;;14.48;4.70;;;;;;;8.43;55.88;100014.13;4992764;28;20065;-76
2021/03/27 09:26:20;;;;;;;15.43;5.00;;;;;;;8.14;57.74;100024.72;4992282;28;20084;-76
2021/03/27 09:29:20;;;;;;;22.55;5.78;;;;;;;7.98;59.14;100022.72;4992205;28;20602;-76
2021/03/27 09:31:57;;;;;;;13.52;4.32;;;;;;;7.96;59.73;100034.13;4990462;28;20041;-76
2021/03/27 09:34:22;;;;;;;10.50;4.88;;;;;;;9.49;56.51;100029.28;4991660;28;20441;-76
2021/03/27 09:37:36;;;;;;;19.98;4.72;;;;;;;11.11;49.56;100030.97;4990606;28;20117;-76
2021/03/27 09:40:20;;;;;;;11.35;4.28;;;;;;;11.57;48.67;100034.88;4961696;28;20068;-76
2021/03/27 09:43:00;;;;;;;13.93;4.15;;;;;;;12.12;45.92;100027.78;4991284;28;20046;-76
2021/03/27 09:45:47;;;;;;;9.77;4.32;;;;;;;12.85;45.09;100049.47;4988656;28;20089;-77
2021/03/27 09:48:43;;;;;;;8.65;3.38;;;;;;;13.00;43.01;100059.22;4990018;28;20042;-74
2021/03/27 09:51:15;;;;;;;7.93;3.70;;;;;;;13.53;43.42;100075.72;4990626;28;20061;-76
2021/03/27 09:54:15;;;;;;;7.40;3.22;;;;;;;12.55;44.72;100067.81;4993788;28;20037;-75
2021/03/27 09:57:19;;;;;;;19.40;4.18;;;;;;;11.67;44.57;100069.63;4990992;28;20046;-77
2021/03/27 09:59:50;;;;;;;6.72;2.88;;;;;;;10.26;48.80;100099.81;4990174;28;20049;-75
2021/03/27 10:02:40;;;;;;;5.05;2.65;;;;;;;11.10;48.09;100095.22;4994663;28;20505;-76
2021/03/27 10:05:40;;;;;;;3.53;2.38;;;;;;;11.70;45.50;100098.53;4990918;28;20058;-75
2021/03/27 10:08:18;;;;;;;5.35;2.58;;;;;;;12.48;45.74;100106.97;4989311;28;20034;-77
2021/03/27 10:11:00;;;;;;;4.85;2.28;;;;;;;13.27;44.07;100108.97;4990594;28;20129;-75
2021/03/27 10:13:38;;;;;;;5.82;2.55;;;;;;;13.54;41.88;100106.56;4989943;28;20038;-75
2021/03/27 10:16:15;;;;;;;8.23;2.90;;;;;;;13.85;42.09;100102.16;4989616;28;20034;-76
2021/03/27 10:18:54;;;;;;;11.20;3.30;;;;;;;14.12;40.69;100089.09;4990559;28;20046;-76
2021/03/27 10:21:35;;;;;;;7.60;3.03;;;;;;;13.81;41.08;100098.84;4989361;28;20041;-77
2021/03/27 10:24:25;;;;;;;9.02;3.45;;;;;;;14.37;40.27;100096.44;4990846;28;20045;-77
2021/03/27 10:27:24;;;;;;;13.75;3.72;;;;;;;14.33;40.49;100092.28;4989941;28;20404;-77
2021/03/27 10:30:05;;;;;;;10.57;3.50;;;;;;;12.62;44.01;100107.09;4990589;28;20046;-77
2021/03/27 10:32:31;;;;;;;10.18;2.85;;;;;;;11.34;49.16;100120.47;4990337;28;20062;-75
2021/03/27 10:35:23;;;;;;;11.02;3.28;;;;;;;10.32;51.26;100132.06;4990500;28;20124;-77
2021/03/27 10:37:48;;;;;;;13.13;4.32;;;;;;;9.31;55.32;100124.75;4989709;28;20426;-75
2021/03/27 10:40:26;;;;;;;17.30;4.47;;;;;;;8.99;55.69;100132.09;4989416;28;20089;-76
2021/03/27 10:43:13;;;;;;;8.00;3.35;;;;;;;10.31;54.05;100116.31;4988420;28;22186;-76
2021/03/27 10:45:52;;;;;;;10.18;3.30;;;;;;;10.68;49.94;100135.78;4989661;28;20042;-75
2021/03/27 10:48:51;;;;;;;11.75;3.65;;;;;;;10.08;49.71;100131.28;4990171;28;20409;-75
2021/03/27 10:51:35;;;;;;;8.77;3.00;;;;;;;10.39;48.76;100135.31;4986725;28;20536;-75
2021/03/27 10:54:19;;;;;;;6.88;2.95;;;;;;;10.13;49.85;100148.69;4989085;28;20034;-76
2021/03/27 10:57:07;;;;;;;7.88;3.35;;;;;;;9.77;48.50;100147.50;4988354;28;20090;-77
2021/03/27 10:59:51;;;;;;;17.95;3.80;;;;;;;9.26;50.89;100164.41;4992059;28;20044;-76
2021/03/27 11:02:39;;;;;;;9.65;3.25;;;;;;;8.68;54.96;100183.13;4993672;28;20050;-75
2021/03/27 11:05:33;;;;;;;15.95;5.07;;;;;;;7.82;59.40;100204.31;4993969;28;20038;-76
2021/03/27 11:08:20;;;;;;;8.50;2.80;;;;;;;7.06;59.28;100192.59;5008847;28;20038;-75
2021/03/27 11:11:01;;;;;;;9.57;3.03;;;;;;;6.63;61.87;100190.28;4992798;28;20046;-75
2021/03/27 11:13:46;;;;;;;7.78;2.63;;;;;;;6.47;64.29;100208.16;4993145;28;20512;-74
2021/03/27 11:16:38;;;;;;;8.98;3.30;;;;;;;6.21;63.71;100183.50;4974596;28;20050;-75
2021/03/27 11:19:41;;;;;;;8.43;3.42;;;;;;;6.31;64.47;100180.66;4991917;28;20030;-74
2021/03/27 11:22:12;;;;;;;9.80;3.10;;;;;;;6.58;64.13;100166.00;4977155;28;20039;-75
2021/03/27 11:25:11;;;;;;;11.57;3.17;;;;;;;6.98;63.42;100170.13;4974053;28;20406;-75
2021/03/27 11:28:00;;;;;;;11.73;3.72;;;;;;;7.23;63.20;100175.50;4973266;28;20553;-74
2021/03/27 11:30:47;;;;;;;12.52;3.83;;;;;;;7.32;59.24;100176.09;4993550;28;20034;-76
2021/03/27 11:33:36;;;;;;;9.48;3.53;;;;;;;7.31;60.45;100184.88;4993247;28;20034;-76
2021/03/27 11:36:04;;;;;;;10.65;3.75;;;;;;;7.48;59.24;100179.16;5008559;28;20042;-76
2021/03/27 11:38:56;;;;;;;8.63;3.90;;;;;;;7.91;57.61;100179.56;4993359;28;20414;-77
2021/03/27 11:41:35;;;;;;;9.27;4.25;;;;;;;8.32;55.75;100193.13;4993265;28;20462;-76
2021/03/27 11:44:21;;;;;;;7.25;2.97;;;;;;;8.27;56.40;100180.16;4996162;28;20034;-76
2021/03/27 11:47:19;;;;;;;9.48;3.00;;;;;;;8.18;55.58;100193.56;4975633;28;20051;-75
2021/03/27 11:49:50;;;;;;;12.90;3.63;;;;;;;8.12;55.33;100204.25;4974532;28;20052;-75
2021/03/27 11:52:37;;;;;;;9.25;3.50;;;;;;;8.14;54.75;100199.81;4975332;28;20150;-76
2021/03/27 11:55:17;;;;;;;5.97;2.95;;;;;;;8.27;55.77;100201.16;4994757;28;20401;-76
2021/03/27 11:57:48;;;;;;;8.27;2.90;;;;;;;8.34;55.71;100209.66;4994783;28;20044;-76
2021/03/27 12:03:47;;;;;;;9.52;3.42;;;;;;;8.54;54.56;100230.06;4993993;28;20516;-75
2021/03/27 12:06:26;;;;;;;7.18;2.72;;;;;;;8.36;56.06;100240.22;4994486;28;20046;-75
2021/03/27 12:09:09;;;;;;;8.68;3.67;;;;;;;7.61;55.38;100247.00;4993078;28;20450;-75
2021/03/27 12:11:53;;;;;;;6.97;4.10;;;;;;;7.23;55.93;100255.03;4992233;28;20045;-75
2021/03/27 12:14:34;;;;;;;8.43;3.13;;;;;;;7.23;56.84;100269.91;4994536;28;20042;-75
2021/03/27 12:17:12;;;;;;;7.95;3.72;;;;;;;7.36;58.03;100265.19;4993221;28;20088;-76
2021/03/27 12:20:03;;;;;;;8.73;4.13;;;;;;;7.62;60.02;100264.44;4991946;28;20038;-77
2021/03/27 12:22:36;;;;;;;7.97;3.10;;;;;;;7.73;58.96;100271.09;4992652;28;20073;-76
2021/03/27 12:25:47;;;;;;;18.67;3.70;;;;;;;7.81;58.18;100273.50;4993024;28;20100;-75
2021/03/27 12:28:22;;;;;;;8.85;3.30;;;;;;;7.89;58.57;100268.00;4987908;28;20061;-76
2021/03/27 12:30:59;;;;;;;14.37;4.17;;;;;;;8.03;57.23;100275.47;4992620;28;20095;-77
2021/03/27 12:34:01;;;;;;;7.72;3.38;;;;;;;8.19;57.06;100266.19;4992490;28;20113;-75
2021/03/27 12:36:55;;;;;;;9.65;3.40;;;;;;;8.37;53.87;100272.63;4992326;28;20101;-75
2021/03/27 12:39:28;;;;;;;7.70;3.10;;;;;;;8.58;55.98;100261.44;4992201;28;20494;-75
2021/03/27 12:41:57;;;;;;;8.65;3.10;;;;;;;8.74;55.07;100264.44;4991563;28;20042;-75
2021/03/27 12:44:37;;;;;;;6.60;3.00;;;;;;;9.03;53.49;100267.78;4992077;28;20108;-75
2021/03/27 12:47:26;;;;;;;9.93;3.97;;;;;;;9.19;50.71;100258.47;4992351;28;20034;-75
2021/03/27 12:50:12;;;;;;;7.93;2.83;;;;;;;9.43;49.65;100251.44;4971729;28;20042;-75
2021/03/27 12:52:52;;;;;;;12.18;3.05;;;;;;;9.61;49.72;100270.09;4992388;28;20065;-75
2021/03/27 12:55:36;;;;;;;8.85;2.45;;;;;;;9.74;46.38;100266.06;4992326;28;20068;-77